Time;durP1;ratioP1;P1;durP2;ratioP2;P2;SDS_P1;SDS_P2;PMS_P1;PMS_P2;Temp;Humidity;BMP_temperature;BMP_pressure;BME280_temperature;BME280_humidity;BME280_pressure;Samples;Min_cycle;Max_cycle;Signal;HPM_P1;HPM_P2
2023/02/17 00:00:34;;;;;;;43.17;25.98;;;6.40;99.90;;;;;;2077451;28;20037;-78
2023/02/17 00:01:35;;;;;;;40.40;25.55;;;6.40;99.90;;;;;;2080185;28;20548;-78
2023/02/17 00:02:36;;;;;;;43.33;26.63;;;6.40;99.90;;;;;;2066143;28;20030;-78
2023/02/17 00:03:36;;;;;;;39.83;25.15;;;6.40;99.90;;;;;;2062842;28;20119;-77
2023/02/17 00:04:37;;;;;;;39.38;25.40;;;6.40;99.90;;;;;;2070066;28;20582;-78
2023/02/17 00:05:39;;;;;;;39.33;24.75;;;6.40;99.90;;;;;;2080751;28;20032;-78
2023/02/17 00:06:39;;;;;;;36.95;23.92;;;6.40;99.90;;;;;;2076633;28;20037;-77
2023/02/17 00:07:40;;;;;;;38.45;24.38;;;6.40;99.90;;;;;;2077038;28;20029;-77
2023/02/17 00:08:41;;;;;;;37.63;23.90;;;6.50;99.90;;;;;;2077430;28;20044;-77
2023/02/17 00:09:42;;;;;;;37.38;24.45;;;6.50;99.90;;;;;;2079764;28;20021;-77
2023/02/17 00:10:42;;;;;;;38.15;24.73;;;6.50;99.90;;;;;;2090499;28;20021;-78
2023/02/17 00:11:43;;;;;;;36.90;24.13;;;6.50;99.90;;;;;;2091777;28;20039;-78
2023/02/17 00:12:44;;;;;;;40.88;24.55;;;6.50;99.90;;;;;;2079023;28;20678;-79
2023/02/17 00:13:45;;;;;;;37.30;23.58;;;6.50;99.90;;;;;;2078592;28;20067;-78
2023/02/17 00:14:46;;;;;;;35.65;22.52;;;6.50;99.90;;;;;;2078387;28;20052;-78
2023/02/17 00:15:46;;;;;;;34.58;22.05;;;6.50;99.90;;;;;;2087956;28;20111;-77
2023/02/17 00:16:47;;;;;;;35.05;22.67;;;6.50;99.90;;;;;;2077331;28;20048;-77
2023/02/17 00:17:47;;;;;;;32.85;21.92;;;6.50;99.90;;;;;;2077455;28;20042;-78
2023/02/17 00:18:53;;;;;;;35.15;23.38;;;6.50;99.90;;;;;;2092846;28;20081;-78
2023/02/17 00:19:57;;;;;;;36.42;23.83;;;6.50;99.90;;;;;;2078846;28;20036;-78
2023/02/17 00:20:57;;;;;;;36.38;23.00;;;6.60;99.90;;;;;;2068266;28;20025;-77
2023/02/17 00:22:00;;;;;;;36.85;23.00;;;6.60;99.90;;;;;;2079079;28;20037;-77
2023/02/17 00:23:00;;;;;;;40.83;25.13;;;6.60;99.90;;;;;;2081173;28;20068;-77
2023/02/17 00:24:01;;;;;;;38.97;24.38;;;6.60;99.90;;;;;;2079028;28;20027;-76
2023/02/17 00:25:02;;;;;;;39.08;25.08;;;6.60;99.90;;;;;;2084353;28;20795;-78
2023/02/17 00:26:06;;;;;;;36.13;23.70;;;6.60;99.90;;;;;;2084903;28;20708;-77
2023/02/17 00:27:07;;;;;;;38.08;23.50;;;6.60;99.90;;;;;;2077463;28;20031;-78
2023/02/17 00:28:08;;;;;;;37.22;23.40;;;6.70;99.90;;;;;;2077190;28;20488;-78
2023/02/17 00:29:08;;;;;;;35.83;22.52;;;6.70;99.90;;;;;;2091923;28;20024;-78
2023/02/17 00:30:09;;;;;;;36.70;23.35;;;6.70;99.90;;;;;;2087064;28;20024;-77
2023/02/17 00:31:14;;;;;;;38.90;24.48;;;6.70;99.90;;;;;;2077931;28;20420;-77
2023/02/17 00:32:15;;;;;;;36.33;23.10;;;6.70;99.90;;;;;;2082146;28;20718;-77
2023/02/17 00:33:16;;;;;;;35.67;22.60;;;6.80;99.90;;;;;;2086929;28;20020;-77
2023/02/17 00:34:16;;;;;;;34.45;22.33;;;6.70;99.90;;;;;;2080118;28;20039;-77
2023/02/17 00:35:17;;;;;;;34.75;22.48;;;6.70;99.90;;;;;;2084951;28;20036;-77
2023/02/17 00:36:19;;;;;;;37.05;23.42;;;6.70;99.90;;;;;;2093779;28;20064;-77
2023/02/17 00:37:19;;;;;;;41.53;24.33;;;6.80;99.90;;;;;;2077318;28;20128;-77
2023/02/17 00:38:20;;;;;;;46.95;27.38;;;6.70;99.90;;;;;;2077849;28;20515;-78
2023/02/17 00:39:20;;;;;;;39.25;24.20;;;6.80;99.90;;;;;;2079674;28;20119;-77
2023/02/17 00:40:22;;;;;;;37.55;24.05;;;6.80;99.90;;;;;;2078792;28;20473;-78
2023/02/17 00:41:24;;;;;;;37.03;22.73;;;6.80;99.90;;;;;;2074967;28;20034;-77
2023/02/17 00:42:25;;;;;;;35.45;22.70;;;6.90;99.90;;;;;;2078686;28;20086;-77
2023/02/17 00:43:26;;;;;;;38.28;23.00;;;6.90;99.90;;;;;;2071427;28;20115;-77
2023/02/17 00:44:27;;;;;;;32.03;20.50;;;6.90;99.90;;;;;;2082365;28;20025;-78
2023/02/17 00:45:28;;;;;;;30.08;20.17;;;6.90;99.90;;;;;;2086542;28;20056;-78
2023/02/17 00:46:28;;;;;;;29.33;18.90;;;7.00;99.90;;;;;;2076648;28;20710;-77
2023/02/17 00:47:29;;;;;;;28.50;19.75;;;7.00;99.90;;;;;;2071529;28;20553;-77
2023/02/17 00:48:30;;;;;;;30.52;19.75;;;7.00;99.90;;;;;;2078944;28;20512;-78
2023/02/17 00:49:31;;;;;;;28.40;19.38;;;7.10;99.90;;;;;;2071644;28;20496;-78
2023/02/17 00:50:31;;;;;;;26.63;18.55;;;7.10;99.90;;;;;;2086923;28;20029;-77
2023/02/17 00:51:32;;;;;;;24.58;17.30;;;7.20;99.90;;;;;;2079212;28;20055;-79
2023/02/17 00:52:32;;;;;;;28.33;18.38;;;7.20;99.90;;;;;;2069092;28;20037;-78
2023/02/17 00:53:33;;;;;;;24.40;17.55;;;7.20;99.90;;;;;;2082640;28;20029;-78
2023/02/17 00:54:33;;;;;;;27.80;18.77;;;7.20;99.90;;;;;;2072234;28;20504;-79
2023/02/17 00:55:34;;;;;;;28.98;19.30;;;7.30;99.90;;;;;;2069188;28;20061;-80
2023/02/17 00:56:34;;;;;;;29.17;19.33;;;7.40;99.90;;;;;;2079575;28;20032;-77
2023/02/17 00:57:36;;;;;;;25.55;18.60;;;7.50;99.90;;;;;;2087896;28;20028;-77
2023/02/17 00:58:38;;;;;;;27.52;18.75;;;7.50;99.90;;;;;;2082353;28;20210;-79
2023/02/17 00:59:38;;;;;;;29.17;18.25;;;7.60;99.90;;;;;;2079557;28;20041;-78
2023/02/17 01:00:41;;;;;;;24.17;17.58;;;7.60;99.90;;;;;;2074420;28;20061;-77
2023/02/17 01:01:42;;;;;;;27.23;18.65;;;7.70;99.90;;;;;;2098295;28;20458;-78
2023/02/17 01:02:43;;;;;;;25.67;18.23;;;7.70;99.90;;;;;;2083809;28;20021;-79
2023/02/17 01:03:43;;;;;;;28.80;18.50;;;7.70;99.90;;;;;;2076727;28;20040;-79
2023/02/17 01:04:44;;;;;;;28.15;18.92;;;7.80;99.90;;;;;;2079298;28;20087;-79
2023/02/17 01:05:49;;;;;;;28.63;18.30;;;7.80;99.90;;;;;;2078705;28;20035;-78
2023/02/17 01:06:49;;;;;;;24.52;17.38;;;7.80;99.90;;;;;;2081981;28;20036;-78
2023/02/17 01:07:50;;;;;;;25.45;17.80;;;7.80;99.90;;;;;;2076435;28;20044;-78
2023/02/17 01:08:50;;;;;;;27.55;18.00;;;7.90;99.90;;;;;;2083452;28;20033;-78
2023/02/17 01:09:51;;;;;;;29.92;19.05;;;7.90;99.90;;;;;;2082246;28;20065;-79
2023/02/17 01:10:52;;;;;;;28.02;18.00;;;7.90;99.90;;;;;;2092036;28;20031;-78
2023/02/17 01:11:52;;;;;;;25.48;18.48;;;8.00;99.90;;;;;;2084819;28;20059;-77
2023/02/17 01:12:53;;;;;;;27.52;18.63;;;8.00;99.90;;;;;;2075385;28;20530;-77
2023/02/17 01:13:56;;;;;;;24.90;17.88;;;8.00;99.90;;;;;;2092686;28;20112;-77
2023/02/17 01:14:56;;;;;;;26.02;18.13;;;8.00;99.90;;;;;;2094501;28;20032;-77
2023/02/17 01:15:57;;;;;;;23.90;17.40;;;8.00;99.90;;;;;;2076394;28;20609;-78
2023/02/17 01:16:58;;;;;;;26.45;18.05;;;8.00;99.90;;;;;;2093738;28;20021;-79
2023/02/17 01:17:58;;;;;;;22.55;16.17;;;8.00;99.90;;;;;;2088311;28;20052;-78
2023/02/17 01:18:59;;;;;;;24.42;17.48;;;8.00;99.90;;;;;;2075401;28;20116;-79
2023/02/17 01:20:00;;;;;;;23.42;16.20;;;8.00;99.90;;;;;;2079743;28;20028;-78
2023/02/17 01:21:01;;;;;;;24.50;16.35;;;8.00;99.90;;;;;;2081048;28;20112;-79
2023/02/17 01:22:01;;;;;;;24.35;16.50;;;8.00;99.90;;;;;;2083869;28;20641;-79
2023/02/17 01:23:02;;;;;;;22.35;16.20;;;8.00;99.90;;;;;;2090116;28;20029;-79
2023/02/17 01:24:05;;;;;;;26.05;17.17;;;8.00;99.90;;;;;;2087413;28;20632;-78
2023/02/17 01:25:06;;;;;;;25.67;17.70;;;7.90;99.90;;;;;;2074191;28;20037;-78
2023/02/17 01:26:13;;;;;;;23.90;16.75;;;7.90;99.90;;;;;;2082144;28;20446;-80
2023/02/17 01:27:13;;;;;;;25.15;17.98;;;7.90;99.90;;;;;;2080490;28;20061;-78
2023/02/17 01:28:18;;;;;;;25.65;18.25;;;7.90;99.90;;;;;;2076073;28;20029;-78
2023/02/17 01:29:20;;;;;;;26.20;17.95;;;7.90;99.90;;;;;;2079971;28;20037;-78
2023/02/17 01:30:21;;;;;;;26.73;17.52;;;7.90;99.90;;;;;;2081582;28;20086;-78
2023/02/17 01:31:22;;;;;;;24.15;16.80;;;7.90;99.90;;;;;;2076330;28;20029;-78
2023/02/17 01:32:22;;;;;;;23.52;16.90;;;7.90;99.90;;;;;;2069652;28;20124;-77
2023/02/17 01:33:23;;;;;;;23.05;16.30;;;7.90;99.90;;;;;;2070578;28;20116;-77
2023/02/17 01:34:23;;;;;;;23.30;16.17;;;7.90;99.90;;;;;;2070620;28;20034;-78
2023/02/17 01:35:24;;;;;;;23.73;17.50;;;7.90;99.90;;;;;;2070433;28;20041;-77
2023/02/17 01:36:25;;;;;;;22.65;15.98;;;7.90;99.90;;;;;;2073278;28;20030;-78
2023/02/17 01:37:26;;;;;;;21.20;14.77;;;7.90;99.90;;;;;;2067163;28;20043;-78
2023/02/17 01:38:28;;;;;;;21.73;14.70;;;7.90;99.90;;;;;;2075706;28;20036;-78
2023/02/17 01:39:29;;;;;;;19.52;14.43;;;7.90;99.90;;;;;;2079885;28;20103;-77
2023/02/17 01:40:29;;;;;;;20.05;13.88;;;7.90;99.90;;;;;;2072120;28;20618;-78
2023/02/17 01:41:31;;;;;;;20.88;14.30;;;7.90;99.90;;;;;;2087149;28;20024;-78
2023/02/17 01:42:31;;;;;;;19.83;13.85;;;7.90;99.90;;;;;;2086924;28;20033;-78
2023/02/17 01:43:32;;;;;;;21.05;15.07;;;7.90;99.90;;;;;;2078613;28;20044;-78
2023/02/17 01:44:32;;;;;;;19.23;14.02;;;7.90;99.90;;;;;;2069959;28;20029;-78
2023/02/17 01:45:37;;;;;;;19.70;13.85;;;7.90;99.90;;;;;;2084550;28;20396;-77
2023/02/17 01:46:40;;;;;;;19.52;14.27;;;7.90;99.90;;;;;;2088304;28;20039;-78
2023/02/17 01:47:40;;;;;;;20.50;14.90;;;7.90;99.90;;;;;;2075858;28;20421;-78
2023/02/17 01:48:49;;;;;;;20.10;14.57;;;7.90;99.90;;;;;;2076653;28;20045;-79
2023/02/17 01:49:50;;;;;;;22.67;15.63;;;7.80;99.90;;;;;;2078183;28;20124;-78
2023/02/17 01:51:13;;;;;;;21.13;15.13;;;7.80;99.90;;;;;;2079686;28;20204;-78
2023/02/17 01:52:24;;;;;;;23.20;16.17;;;7.80;99.90;;;;;;2064126;28;20049;-79
2023/02/17 01:53:31;;;;;;;;;;;7.80;99.90;;;;;;2073202;28;20105;-78
2023/02/17 01:54:38;;;;;;;23.20;15.23;;;7.80;99.90;;;;;;2072368;28;20344;-77
2023/02/17 01:55:44;;;;;;;21.98;15.10;;;7.80;99.90;;;;;;2075299;28;20083;-77
2023/02/17 01:56:47;;;;;;;22.50;16.15;;;7.80;99.90;;;;;;2080083;28;20037;-77
2023/02/17 01:57:48;;;;;;;24.55;17.05;;;7.80;99.90;;;;;;2078945;28;20079;-78
2023/02/17 01:58:54;;;;;;;24.90;16.77;;;7.80;99.90;;;;;;2074935;28;20029;-77
2023/02/17 01:59:55;;;;;;;22.20;15.52;;;7.80;99.90;;;;;;2093447;28;20028;-78
2023/02/17 02:00:59;;;;;;;21.02;15.35;;;7.90;99.90;;;;;;2086985;28;20024;-77
2023/02/17 02:02:03;;;;;;;21.05;14.80;;;7.90;99.90;;;;;;2079059;28;20686;-77
2023/02/17 02:03:07;;;;;;;19.23;14.18;;;7.90;99.90;;;;;;2078951;28;20519;-78
2023/02/17 02:04:08;;;;;;;20.13;14.95;;;7.90;99.90;;;;;;2086853;28;20017;-77
2023/02/17 02:05:10;;;;;;;19.92;14.38;;;7.90;99.90;;;;;;2078038;28;20369;-79
2023/02/17 02:06:16;;;;;;;19.13;13.85;;;7.90;99.90;;;;;;2078206;28;20441;-77
2023/02/17 02:07:21;;;;;;;18.73;13.55;;;7.90;99.90;;;;;;2084124;28;20128;-77
2023/02/17 02:08:21;;;;;;;23.88;15.50;;;7.90;99.90;;;;;;2081083;28;20039;-78
2023/02/17 02:09:34;;;;;;;22.88;15.52;;;7.90;99.90;;;;;;2088988;28;20036;-77
2023/02/17 02:10:34;;;;;;;22.65;14.93;;;7.90;99.90;;;;;;2079844;28;20036;-79
2023/02/17 02:11:39;;;;;;;21.63;15.13;;;7.90;99.90;;;;;;2082667;28;21004;-78
2023/02/17 02:12:41;;;;;;;19.95;14.20;;;7.90;99.90;;;;;;2087360;28;20037;-78
2023/02/17 02:13:42;;;;;;;19.50;14.10;;;7.90;99.90;;;;;;2071515;28;20108;-78
2023/02/17 02:14:43;;;;;;;20.95;13.77;;;7.90;99.90;;;;;;2080383;28;20041;-78
2023/02/17 02:16:06;;;;;;;22.95;16.00;;;7.90;99.90;;;;;;2078885;28;20037;-78
2023/02/17 02:17:16;;;;;;;23.27;15.05;;;8.00;99.90;;;;;;2073028;28;20033;-78
2023/02/17 02:18:47;;;;;;;20.52;14.73;;;8.00;99.90;;;;;;2074947;28;20041;-77
2023/02/17 02:19:59;;;;;;;23.08;15.80;;;8.00;99.90;;;;;;2072133;28;20112;-79
2023/02/17 02:21:43;;;;;;;22.20;14.98;;;8.10;99.90;;;;;;2082440;28;20036;-77
2023/02/17 02:23:08;;;;;;;24.05;15.55;;;8.10;99.90;;;;;;2078674;28;20036;-77
2023/02/17 02:24:27;;;;;;;21.77;15.15;;;8.10;99.90;;;;;;2096543;28;20028;-78
2023/02/17 02:25:40;;;;;;;20.58;14.13;;;8.20;99.90;;;;;;2088724;28;20035;-78
2023/02/17 02:27:11;;;;;;;21.60;15.02;;;8.20;99.90;;;;;;2085244;28;20031;-78
2023/02/17 02:28:38;;;;;;;23.70;15.00;;;8.20;99.90;;;;;;2079787;28;20026;-78
2023/02/17 02:29:50;;;;;;;24.73;14.98;;;8.20;99.90;;;;;;2081044;28;20545;-78
2023/02/17 02:31:20;;;;;;;23.65;15.02;;;8.20;99.90;;;;;;2084834;28;20021;-78
2023/02/17 02:32:51;;;;;;;21.73;14.65;;;8.20;99.90;;;;;;2084907;28;20055;-79
2023/02/17 02:34:10;;;;;;;;;;;8.30;99.90;;;;;;2083408;28;20068;-78
2023/02/17 02:35:35;;;;;;;21.90;14.93;;;8.30;99.90;;;;;;2095161;28;19912;-78
2023/02/17 02:36:51;;;;;;;22.13;14.25;;;8.40;99.90;;;;;;2071903;28;20034;-78
2023/02/17 02:38:17;;;;;;;22.40;14.48;;;8.40;99.90;;;;;;2086617;28;20077;-78
2023/02/17 02:39:20;;;;;;;21.02;14.25;;;8.40;99.90;;;;;;2085436;28;20052;-78
2023/02/17 02:40:25;;;;;;;23.13;14.38;;;8.40;99.90;;;;;;2080262;28;20052;-79
2023/02/17 02:42:00;;;;;;;22.55;13.90;;;8.40;99.90;;;;;;2078051;28;20926;-79
2023/02/17 02:43:02;;;;;;;19.02;13.40;;;8.50;99.90;;;;;;2063296;28;20053;-77
2023/02/17 02:44:05;;;;;;;22.63;13.80;;;8.50;99.90;;;;;;2080010;28;20040;-77
2023/02/17 02:45:09;;;;;;;21.92;13.98;;;8.50;99.90;;;;;;2090897;28;20523;-78
2023/02/17 02:46:10;;;;;;;18.95;12.85;;;8.60;99.90;;;;;;2088064;28;20021;-78
2023/02/17 02:47:49;;;;;;;18.40;12.77;;;8.60;99.90;;;;;;2072498;28;20056;-78
2023/02/17 02:48:57;;;;;;;19.92;13.35;;;8.60;99.90;;;;;;2092429;28;20050;-78
2023/02/17 02:49:57;;;;;;;22.13;12.75;;;8.70;99.90;;;;;;2087976;28;20024;-78
2023/02/17 02:51:10;;;;;;;20.70;12.70;;;8.80;99.90;;;;;;2085979;28;20024;-79
2023/02/17 02:52:29;;;;;;;22.65;13.27;;;8.80;99.90;;;;;;2091705;28;20529;-78
2023/02/17 02:53:54;;;;;;;20.23;12.95;;;8.90;99.90;;;;;;2080216;28;20393;-81
2023/02/17 02:55:39;;;;;;;20.10;13.27;;;8.90;99.90;;;;;;2090670;28;20028;-79
2023/02/17 02:57:03;;;;;;;20.58;13.45;;;8.90;99.90;;;;;;2055766;28;20066;-77
2023/02/17 02:58:21;;;;;;;20.25;13.52;;;8.90;99.90;;;;;;2061797;28;20026;-80
2023/02/17 02:59:33;;;;;;;19.15;12.93;;;8.90;99.90;;;;;;2079912;28;20155;-78
2023/02/17 03:00:56;;;;;;;20.50;14.48;;;8.90;99.90;;;;;;2086479;28;20125;-78
2023/02/17 03:02:21;;;;;;;23.75;14.40;;;8.80;99.90;;;;;;2076033;28;20533;-77
2023/02/17 03:03:42;;;;;;;20.33;13.57;;;8.80;99.90;;;;;;2074332;28;20032;-77
2023/02/17 03:04:55;;;;;;;20.75;14.45;;;8.80;99.90;;;;;;2086840;28;20130;-78
2023/02/17 03:06:13;;;;;;;21.48;14.20;;;8.70;99.90;;;;;;2083869;28;20522;-77
2023/02/17 03:07:21;;;;;;;22.98;14.98;;;8.70;99.90;;;;;;2085901;28;20059;-78
2023/02/17 03:08:50;;;;;;;23.20;14.63;;;8.70;99.90;;;;;;2082231;28;20145;-79
2023/02/17 03:09:54;;;;;;;24.10;14.77;;;8.70;99.90;;;;;;2091133;28;20028;-79
2023/02/17 03:10:55;;;;;;;20.42;14.90;;;8.70;99.90;;;;;;2095076;28;20023;-79
2023/02/17 03:11:57;;;;;;;21.23;14.57;;;8.70;99.90;;;;;;2088794;28;20024;-77
2023/02/17 03:13:02;;;;;;;21.70;15.10;;;8.70;99.90;;;;;;2088567;28;20031;-80
2023/02/17 03:14:06;;;;;;;25.23;15.23;;;8.70;99.90;;;;;;2085008;28;20030;-80
2023/02/17 03:15:27;;;;;;;24.48;15.13;;;8.70;99.90;;;;;;2085919;28;20502;-80
2023/02/17 03:16:28;;;;;;;23.92;15.43;;;8.70;99.90;;;;;;2080707;28;20052;-78
2023/02/17 03:17:31;;;;;;;24.42;14.85;;;8.80;99.90;;;;;;2078833;28;20033;-78
2023/02/17 03:18:33;;;;;;;20.85;14.38;;;8.80;99.90;;;;;;2077589;28;20515;-78
2023/02/17 03:19:34;;;;;;;22.77;15.07;;;8.80;99.90;;;;;;2078162;28;20041;-78
2023/02/17 03:20:42;;;;;;;23.08;14.82;;;8.80;99.90;;;;;;2094514;28;20090;-78
2023/02/17 03:21:57;;;;;;;24.92;15.20;;;8.80;99.90;;;;;;2085422;28;20029;-77
2023/02/17 03:22:57;;;;;;;22.88;15.13;;;8.80;99.90;;;;;;2071867;28;20101;-80
2023/02/17 03:23:58;;;;;;;22.77;14.70;;;8.80;99.90;;;;;;2085851;28;20029;-79
2023/02/17 03:25:00;;;;;;;21.95;15.57;;;8.80;99.90;;;;;;2094980;28;20563;-77
2023/02/17 03:26:00;;;;;;;22.50;15.40;;;8.80;99.90;;;;;;2081211;28;20022;-78
2023/02/17 03:27:01;;;;;;;23.85;15.13;;;8.80;99.90;;;;;;2085523;28;20605;-78
2023/02/17 03:28:02;;;;;;;23.25;15.57;;;8.80;99.90;;;;;;2093761;28;20028;-79
2023/02/17 03:29:03;;;;;;;21.45;14.90;;;8.90;99.90;;;;;;2080720;28;20102;-77
2023/02/17 03:30:05;;;;;;;22.88;15.50;;;8.90;99.90;;;;;;2080766;28;20447;-80
2023/02/17 03:31:05;;;;;;;22.17;15.50;;;8.90;99.90;;;;;;2077482;28;20029;-80
2023/02/17 03:32:06;;;;;;;23.42;15.05;;;9.00;99.90;;;;;;2086053;28;20039;-77
2023/02/17 03:33:07;;;;;;;22.92;14.45;;;9.00;99.90;;;;;;2094340;28;20036;-78
2023/02/17 03:34:08;;;;;;;23.52;15.18;;;9.00;99.90;;;;;;2094242;28;20021;-79
2023/02/17 03:35:10;;;;;;;22.83;15.05;;;9.00;99.90;;;;;;2078928;28;20100;-79
2023/02/17 03:36:10;;;;;;;22.73;14.65;;;8.90;99.90;;;;;;2080755;28;20154;-80
2023/02/17 03:37:11;;;;;;;21.25;14.80;;;9.00;99.90;;;;;;2075456;28;20033;-78
2023/02/17 03:38:11;;;;;;;24.00;15.02;;;9.00;99.90;;;;;;2082403;28;20025;-78
2023/02/17 03:39:12;;;;;;;24.73;15.90;;;9.00;99.90;;;;;;2077695;28;20083;-78
2023/02/17 03:40:12;;;;;;;24.00;15.25;;;9.00;99.90;;;;;;2080844;28;20052;-79
2023/02/17 03:41:13;;;;;;;21.83;14.77;;;9.00;99.90;;;;;;2075494;28;20072;-78
2023/02/17 03:42:14;;;;;;;20.48;14.32;;;9.00;99.90;;;;;;2076253;28;20121;-78
2023/02/17 03:43:15;;;;;;;22.10;14.90;;;9.00;99.90;;;;;;2077709;28;20033;-77
2023/02/17 03:44:16;;;;;;;22.60;14.90;;;9.00;99.90;;;;;;2077174;28;20068;-78
2023/02/17 03:45:17;;;;;;;23.60;13.63;;;9.10;99.90;;;;;;2076865;28;20025;-77
2023/02/17 03:46:17;;;;;;;23.63;14.45;;;9.10;99.90;;;;;;2075040;28;21055;-78
2023/02/17 03:47:18;;;;;;;23.85;14.20;;;9.10;99.90;;;;;;2076778;28;20779;-80
2023/02/17 03:48:18;;;;;;;22.58;14.65;;;9.10;99.90;;;;;;2079394;28;20037;-77
2023/02/17 03:49:19;;;;;;;21.10;13.68;;;9.10;99.90;;;;;;2079311;28;20021;-79
2023/02/17 03:50:20;;;;;;;21.27;14.15;;;9.20;99.90;;;;;;2077606;28;20113;-78
2023/02/17 03:51:22;;;;;;;21.90;14.30;;;9.10;99.90;;;;;;2085786;28;20035;-78
2023/02/17 03:52:23;;;;;;;20.02;13.93;;;9.10;99.90;;;;;;2077789;28;20044;-80
2023/02/17 03:53:23;;;;;;;24.17;14.50;;;9.10;99.90;;;;;;2079394;28;20036;-78
2023/02/17 03:54:25;;;;;;;23.83;14.00;;;9.10;99.90;;;;;;2092458;28;20040;-78
2023/02/17 03:55:25;;;;;;;21.15;13.98;;;9.10;99.90;;;;;;2085734;28;20045;-78
2023/02/17 03:56:26;;;;;;;20.20;13.80;;;9.10;99.90;;;;;;2097703;28;20020;-79
2023/02/17 03:57:26;;;;;;;21.80;14.25;;;9.10;99.90;;;;;;2086366;28;20028;-78
2023/02/17 03:58:27;;;;;;;22.85;14.77;;;9.10;99.90;;;;;;2087761;28;20537;-78
2023/02/17 03:59:29;;;;;;;21.40;14.55;;;9.10;99.90;;;;;;2093828;28;20040;-79
2023/02/17 04:00:29;;;;;;;20.40;14.10;;;9.10;99.90;;;;;;2077002;28;20036;-79
2023/02/17 04:01:30;;;;;;;21.52;14.63;;;9.10;99.90;;;;;;2069518;28;20036;-78
2023/02/17 04:02:31;;;;;;;19.70;13.82;;;9.10;99.90;;;;;;2080330;28;20498;-79
2023/02/17 04:03:32;;;;;;;22.05;14.27;;;9.10;99.90;;;;;;2087006;28;20680;-80
2023/02/17 04:04:33;;;;;;;20.55;13.95;;;9.10;99.90;;;;;;2086882;28;20024;-77
2023/02/17 04:05:33;;;;;;;23.70;14.43;;;9.10;99.90;;;;;;2087041;28;20621;-79
2023/02/17 04:06:34;;;;;;;20.70;14.27;;;9.00;99.90;;;;;;2075931;28;20408;-79
2023/02/17 04:07:35;;;;;;;23.58;14.30;;;9.00;99.90;;;;;;2076742;28;20044;-79
2023/02/17 04:08:36;;;;;;;21.58;14.43;;;9.00;99.90;;;;;;2077696;28;20064;-79
2023/02/17 04:09:36;;;;;;;18.92;13.57;;;9.00;99.90;;;;;;2078694;28;20029;-78
2023/02/17 04:10:37;;;;;;;20.48;14.60;;;9.00;99.90;;;;;;2083096;28;20537;-79
2023/02/17 04:11:37;;;;;;;19.52;14.52;;;9.00;99.90;;;;;;2096991;28;20024;-78
2023/02/17 04:12:38;;;;;;;22.08;14.27;;;9.00;99.90;;;;;;2077486;28;20395;-78
2023/02/17 04:13:39;;;;;;;22.27;14.50;;;9.00;99.90;;;;;;2079973;28;20089;-81
2023/02/17 04:14:40;;;;;;;22.73;14.38;;;9.00;99.90;;;;;;2082669;28;20052;-78
2023/02/17 04:15:40;;;;;;;23.17;15.27;;;8.90;99.90;;;;;;2084158;28;20025;-78
2023/02/17 04:16:41;;;;;;;23.05;14.85;;;8.90;99.90;;;;;;2077450;28;20036;-77
2023/02/17 04:17:42;;;;;;;25.67;15.52;;;8.90;99.90;;;;;;2093631;28;20035;-79
2023/02/17 04:18:42;;;;;;;22.58;15.43;;;8.80;99.90;;;;;;2085497;28;20379;-77
2023/02/17 04:19:43;;;;;;;23.52;16.30;;;8.80;99.90;;;;;;2077303;28;20040;-77
2023/02/17 04:20:46;;;;;;;22.77;15.68;;;8.70;99.90;;;;;;2077472;28;20051;-78
2023/02/17 04:21:46;;;;;;;27.33;15.77;;;8.70;99.90;;;;;;2087790;28;20526;-80
2023/02/17 04:22:47;;;;;;;25.20;16.05;;;8.70;99.90;;;;;;2080948;28;20062;-78
2023/02/17 04:23:47;;;;;;;25.70;16.25;;;8.60;99.90;;;;;;2085093;28;20582;-79
2023/02/17 04:24:48;;;;;;;25.33;16.65;;;8.60;99.90;;;;;;2095953;28;20526;-78
2023/02/17 04:25:49;;;;;;;24.38;16.55;;;8.60;99.90;;;;;;2078024;28;20029;-79
2023/02/17 04:26:49;;;;;;;25.58;17.05;;;8.50;99.90;;;;;;2082767;28;20029;-80
2023/02/17 04:27:50;;;;;;;25.55;17.35;;;8.50;99.90;;;;;;2077598;28;20030;-79
2023/02/17 04:28:50;;;;;;;24.85;16.73;;;8.40;99.90;;;;;;2074675;28;20026;-78
2023/02/17 04:29:51;;;;;;;24.58;16.65;;;8.40;99.90;;;;;;2081427;28;20056;-79
2023/02/17 04:30:52;;;;;;;27.17;17.45;;;8.30;99.90;;;;;;2090711;28;20039;-79
2023/02/17 04:31:52;;;;;;;25.52;17.77;;;8.30;99.90;;;;;;2082433;28;20032;-80
2023/02/17 04:32:53;;;;;;;26.02;17.55;;;8.30;99.90;;;;;;2071571;28;20029;-81
2023/02/17 04:33:53;;;;;;;26.73;17.88;;;8.20;99.90;;;;;;2085707;28;20062;-81
2023/02/17 04:34:54;;;;;;;24.65;17.42;;;8.20;99.90;;;;;;2093573;28;20017;-79
2023/02/17 04:35:58;;;;;;;27.95;18.17;;;8.20;99.90;;;;;;2084198;28;20577;-78
2023/02/17 04:36:58;;;;;;;29.48;18.35;;;8.20;99.90;;;;;;2083741;28;20036;-80
2023/02/17 04:37:59;;;;;;;23.23;17.05;;;8.20;99.90;;;;;;2090197;28;20021;-80
2023/02/17 04:39:00;;;;;;;25.48;18.10;;;8.20;99.90;;;;;;2092267;28;20062;-79
2023/02/17 04:40:00;;;;;;;26.40;16.80;;;8.10;99.90;;;;;;2092278;28;20025;-78
2023/02/17 04:41:02;;;;;;;27.52;16.83;;;8.10;99.90;;;;;;2089389;28;20032;-80
2023/02/17 04:42:03;;;;;;;24.33;17.17;;;8.20;99.90;;;;;;2073987;28;20029;-80
2023/02/17 04:43:03;;;;;;;26.10;17.63;;;8.20;99.90;;;;;;2083218;28;20480;-79
2023/02/17 04:44:04;;;;;;;24.70;17.50;;;8.10;99.90;;;;;;2094995;28;20021;-80
2023/02/17 04:45:06;;;;;;;26.42;17.83;;;8.20;99.90;;;;;;2094486;28;20028;-80
2023/02/17 04:46:06;;;;;;;24.90;17.33;;;8.20;99.90;;;;;;2072904;28;20049;-82
2023/02/17 04:47:07;;;;;;;25.27;18.33;;;8.20;99.90;;;;;;2078306;28;20661;-78
2023/02/17 04:48:07;;;;;;;26.15;17.92;;;8.20;99.90;;;;;;2084500;28;20024;-80
2023/02/17 04:49:08;;;;;;;25.85;18.50;;;8.20;99.90;;;;;;2081318;28;20109;-79
2023/02/17 04:50:09;;;;;;;25.85;17.88;;;8.20;99.90;;;;;;2081174;28;20029;-79
2023/02/17 04:51:10;;;;;;;24.35;17.35;;;8.20;99.90;;;;;;2086673;28;20032;-80
2023/02/17 04:52:10;;;;;;;25.02;17.45;;;8.10;99.90;;;;;;2078987;28;20236;-78
2023/02/17 04:53:12;;;;;;;25.08;17.35;;;8.20;99.90;;;;;;2079459;28;20068;-80
2023/02/17 04:54:13;;;;;;;24.80;17.20;;;8.20;99.90;;;;;;2080566;28;20143;-81
2023/02/17 04:55:14;;;;;;;27.15;18.70;;;8.20;99.90;;;;;;2079453;28;20048;-77
2023/02/17 04:56:14;;;;;;;25.92;17.20;;;8.20;99.90;;;;;;2081209;28;20035;-77
2023/02/17 04:57:15;;;;;;;26.88;18.48;;;8.20;99.90;;;;;;2071929;28;20060;-78
2023/02/17 04:58:15;;;;;;;28.58;17.83;;;8.20;99.90;;;;;;2068084;28;20018;-77
2023/02/17 04:59:16;;;;;;;26.17;17.73;;;8.20;99.90;;;;;;2088180;28;20040;-81
2023/02/17 05:00:17;;;;;;;27.88;18.10;;;8.20;99.90;;;;;;2073071;28;20153;-81
2023/02/17 05:01:17;;;;;;;24.77;17.73;;;8.20;99.90;;;;;;2067146;28;20443;-79
2023/02/17 05:02:18;;;;;;;24.63;17.88;;;8.20;99.90;;;;;;2073311;28;20029;-80
2023/02/17 05:03:18;;;;;;;25.13;17.40;;;8.20;99.90;;;;;;2077151;28;20033;-78
2023/02/17 05:04:19;;;;;;;24.70;17.50;;;8.20;99.90;;;;;;2079300;28;20060;-79
2023/02/17 05:05:20;;;;;;;25.50;17.75;;;8.20;99.90;;;;;;2085855;28;20052;-81
2023/02/17 05:06:20;;;;;;;24.15;17.77;;;8.20;99.90;;;;;;2084017;28;20043;-81
2023/02/17 05:07:21;;;;;;;25.50;17.65;;;8.20;99.90;;;;;;2096902;28;20496;-80
2023/02/17 05:08:22;;;;;;;27.10;17.50;;;8.20;99.90;;;;;;2093766;28;20047;-80
2023/02/17 05:09:23;;;;;;;25.13;17.13;;;8.20;99.90;;;;;;2076037;28;20124;-80
2023/02/17 05:10:23;;;;;;;26.00;17.63;;;8.20;99.90;;;;;;2084309;28;20017;-79
2023/02/17 05:11:24;;;;;;;23.33;16.83;;;8.20;99.90;;;;;;2095503;28;20025;-80
2023/02/17 05:12:25;;;;;;;27.23;18.25;;;8.20;99.90;;;;;;2095679;28;20028;-80
2023/02/17 05:13:26;;;;;;;26.40;17.77;;;8.20;99.90;;;;;;2078473;28;20053;-78
2023/02/17 05:14:27;;;;;;;27.85;18.48;;;8.20;99.90;;;;;;2085203;28;20029;-79
2023/02/17 05:15:28;;;;;;;25.73;17.38;;;8.20;99.90;;;;;;2085475;28;20392;-80
2023/02/17 05:16:28;;;;;;;23.90;17.80;;;8.20;99.90;;;;;;2081266;28;20044;-80
2023/02/17 05:17:29;;;;;;;24.95;17.65;;;8.20;99.90;;;;;;2079538;28;20078;-78
2023/02/17 05:18:29;;;;;;;27.08;17.30;;;8.20;99.90;;;;;;2078894;28;20022;-78
2023/02/17 05:19:30;;;;;;;24.70;17.67;;;8.30;99.90;;;;;;2086041;28;20060;-79
2023/02/17 05:20:31;;;;;;;24.10;18.00;;;8.20;99.90;;;;;;2079906;28;20073;-78
2023/02/17 05:21:31;;;;;;;25.52;17.48;;;8.30;99.90;;;;;;2081707;28;20021;-78
2023/02/17 05:22:32;;;;;;;25.48;17.42;;;8.20;99.90;;;;;;2081106;28;20029;-78
2023/02/17 05:23:33;;;;;;;26.38;18.23;;;8.30;99.90;;;;;;2091838;28;20037;-77
2023/02/17 05:24:33;;;;;;;25.35;17.90;;;8.30;99.90;;;;;;2088489;28;20067;-77
2023/02/17 05:25:34;;;;;;;23.90;18.13;;;8.30;99.90;;;;;;2081055;28;20036;-79
2023/02/17 05:26:34;;;;;;;25.98;17.67;;;8.30;99.90;;;;;;2100130;28;20028;-80
2023/02/17 05:27:35;;;;;;;25.02;18.20;;;8.30;99.90;;;;;;2102608;28;20643;-79
2023/02/17 05:28:36;;;;;;;23.33;17.05;;;8.30;99.90;;;;;;2085848;28;20047;-78